createdAt,value
2019-01-04T00:00:26.748Z,9.35
2019-01-04T00:02:53.645Z,11.22
2019-01-04T00:05:20.593Z,9.58
2019-01-04T00:07:47.471Z,11.18
2019-01-04T00:10:14.386Z,13.78
2019-01-04T00:12:41.344Z,17.75
2019-01-04T00:15:08.415Z,12.73
2019-01-04T00:17:35.287Z,13.93
2019-01-04T00:20:02.505Z,10.40
2019-01-04T00:22:29.372Z,16.20
2019-01-04T00:24:56.202Z,9.88
2019-01-04T00:27:22.990Z,11.05
2019-01-04T00:29:49.813Z,14.58
2019-01-04T00:32:16.630Z,12.07
2019-01-04T00:34:43.490Z,11.20
2019-01-04T00:37:10.282Z,11.55
2019-01-04T00:39:37.112Z,12.03
2019-01-04T00:42:03.946Z,12.65
2019-01-04T00:44:30.716Z,14.63
2019-01-04T00:46:57.508Z,14.23
2019-01-04T00:49:24.325Z,12.90
2019-01-04T00:51:51.121Z,12.93
2019-01-04T00:54:17.953Z,10.25
2019-01-04T00:57:00.410Z,10.28
2019-01-04T00:59:56.772Z,10.53
2019-01-04T01:02:30.014Z,12.75
2019-01-04T01:05:27.684Z,8.08
2019-01-04T01:08:16.240Z,11.40
2019-01-04T01:11:19.905Z,12.05
2019-01-04T01:14:13.129Z,9.95
2019-01-04T01:17:03.203Z,11.08
2019-01-04T01:19:53.241Z,12.13
2019-01-04T01:22:48.936Z,14.50
2019-01-04T01:25:52.652Z,11.57
2019-01-04T01:28:34.710Z,13.13
2019-01-04T01:31:07.901Z,15.05
2019-01-04T01:33:47.164Z,12.82
2019-01-04T01:36:20.324Z,14.03
2019-01-04T01:39:19.516Z,10.72
2019-01-04T01:42:06.396Z,8.98
2019-01-04T01:45:07.560Z,10.55
2019-01-04T01:47:36.093Z,10.28
2019-01-04T01:50:12.255Z,10.60
2019-01-04T01:52:39.685Z,13.22
2019-01-04T01:55:06.478Z,11.35
2019-01-04T01:57:33.317Z,11.28
2019-01-04T02:00:00.190Z,11.20
2019-01-04T02:02:27.037Z,11.85
2019-01-04T02:04:53.812Z,9.40
2019-01-04T02:07:20.637Z,10.78
2019-01-04T02:09:47.467Z,12.33
2019-01-04T02:12:14.285Z,14.35
2019-01-04T02:14:41.100Z,13.25
2019-01-04T02:17:07.882Z,11.63
2019-01-04T02:19:34.705Z,9.88
2019-01-04T02:22:01.491Z,10.30
2019-01-04T02:24:28.270Z,12.93
2019-01-04T02:26:55.093Z,9.20
2019-01-04T02:29:21.880Z,10.25
2019-01-04T02:31:48.694Z,11.57
2019-01-04T02:34:15.511Z,13.60
2019-01-04T02:36:42.296Z,12.65
2019-01-04T02:39:09.121Z,12.70
2019-01-04T02:41:35.976Z,13.78
2019-01-04T02:44:02.778Z,16.87
2019-01-04T02:46:29.609Z,16.10
2019-01-04T02:48:56.448Z,11.63
2019-01-04T02:51:23.238Z,12.05
2019-01-04T02:53:50.069Z,11.60
2019-01-04T02:56:16.896Z,12.15
2019-01-04T02:58:43.693Z,10.82
2019-01-04T03:01:10.536Z,21.87
2019-01-04T03:03:37.335Z,13.10
2019-01-04T03:06:04.169Z,11.45
2019-01-04T03:08:30.956Z,12.60
2019-01-04T03:10:57.786Z,13.65
2019-01-04T03:13:24.675Z,9.95
2019-01-04T03:15:51.462Z,12.45
2019-01-04T03:18:18.289Z,10.65
2019-01-04T03:20:45.098Z,11.93
2019-01-04T03:23:11.926Z,14.15
2019-01-04T03:25:38.733Z,13.40
2019-01-04T03:28:05.561Z,12.80
2019-01-04T03:30:32.396Z,12.05
2019-01-04T03:32:59.187Z,12.10
2019-01-04T03:35:26.015Z,9.55
2019-01-04T03:37:52.845Z,11.03
2019-01-04T03:40:19.633Z,15.58
2019-01-04T03:42:46.460Z,9.50
2019-01-04T03:45:13.283Z,11.33
2019-01-04T03:47:41.765Z,11.05
2019-01-04T03:50:08.989Z,10.30
2019-01-04T03:52:35.818Z,15.65
2019-01-04T03:55:02.595Z,10.25
2019-01-04T03:57:29.430Z,9.58
2019-01-04T03:59:56.252Z,9.63
2019-01-04T04:02:23.054Z,9.50
2019-01-04T04:04:50.280Z,8.35
2019-01-04T04:07:17.489Z,10.30
2019-01-04T04:09:44.279Z,12.75
2019-01-04T04:12:11.127Z,8.68
2019-01-04T04:14:37.968Z,9.78
2019-01-04T04:17:04.748Z,8.00
2019-01-04T04:19:31.585Z,8.48
2019-01-04T04:21:58.421Z,9.75
2019-01-04T04:24:25.231Z,8.95
2019-01-04T04:26:52.055Z,9.05
2019-01-04T04:29:18.822Z,12.00
2019-01-04T04:31:45.648Z,8.50
2019-01-04T04:34:12.435Z,12.15
2019-01-04T04:36:39.274Z,9.70
2019-01-04T04:39:06.088Z,10.50
2019-01-04T04:41:32.962Z,9.90
2019-01-04T04:43:59.792Z,14.38
2019-01-04T04:46:26.578Z,12.13
2019-01-04T04:48:53.409Z,11.10
2019-01-04T04:51:20.186Z,9.38
2019-01-04T04:53:47.009Z,12.95
2019-01-04T04:56:13.793Z,12.93
2019-01-04T04:58:40.657Z,11.75
2019-01-04T05:01:07.472Z,13.20
2019-01-04T05:03:34.261Z,9.43
2019-01-04T05:06:01.082Z,9.65
2019-01-04T05:08:27.916Z,12.35
2019-01-04T05:10:54.753Z,8.70
2019-01-04T05:13:21.573Z,11.12
2019-01-04T05:15:48.398Z,11.15
2019-01-04T05:18:15.221Z,9.88
2019-01-04T05:20:42.024Z,10.70
2019-01-04T05:23:08.954Z,12.15
2019-01-04T05:25:35.734Z,10.32
2019-01-04T05:28:02.614Z,9.95
2019-01-04T05:30:30.856Z,11.28
2019-01-04T05:32:57.741Z,9.40
2019-01-04T05:35:24.565Z,12.23
2019-01-04T05:37:51.349Z,11.15
2019-01-04T05:40:18.173Z,10.55
2019-01-04T05:42:44.962Z,11.38
2019-01-04T05:45:11.782Z,12.03
2019-01-04T05:47:38.607Z,10.43
2019-01-04T05:50:05.903Z,12.85
2019-01-04T05:52:32.721Z,11.90
2019-01-04T05:54:59.513Z,10.43
2019-01-04T05:57:26.359Z,10.93
2019-01-04T05:59:53.141Z,14.63
2019-01-04T06:02:19.966Z,12.60
2019-01-04T06:04:46.785Z,13.35
2019-01-04T06:07:13.610Z,11.08
2019-01-04T06:09:40.402Z,11.93
2019-01-04T06:12:07.230Z,11.53
2019-01-04T06:14:34.054Z,12.00
2019-01-04T06:17:00.881Z,13.40
2019-01-04T06:19:27.729Z,9.58
2019-01-04T06:21:54.510Z,10.98
2019-01-04T06:24:21.541Z,11.30
2019-01-04T06:26:48.319Z,11.55
2019-01-04T06:29:15.148Z,11.18
2019-01-04T06:31:41.950Z,14.50
2019-01-04T06:34:08.797Z,12.95
2019-01-04T06:36:35.578Z,14.70
2019-01-04T06:39:04.402Z,12.82
2019-01-04T06:41:31.181Z,16.12
2019-01-04T06:43:58.000Z,11.83
2019-01-04T06:46:24.834Z,14.28
2019-01-04T06:48:51.766Z,11.30
2019-01-04T06:51:18.590Z,15.28
2019-01-04T06:53:45.378Z,11.20
2019-01-04T06:56:12.209Z,12.75
2019-01-04T06:58:39.049Z,18.73
2019-01-04T07:01:05.900Z,12.70
2019-01-04T07:03:32.685Z,13.70
2019-01-04T07:05:59.542Z,11.10
2019-01-04T07:08:26.325Z,12.98
2019-01-04T07:10:53.150Z,14.13
2019-01-04T07:13:19.931Z,14.70
2019-01-04T07:15:46.769Z,12.70
2019-01-04T07:18:13.573Z,14.70
2019-01-04T07:20:40.358Z,13.22
2019-01-04T07:23:07.264Z,21.02
2019-01-04T07:25:34.064Z,15.32
2019-01-04T07:28:00.880Z,14.78
2019-01-04T07:30:27.679Z,15.18
2019-01-04T07:32:54.497Z,12.80
2019-01-04T07:35:21.291Z,15.53
2019-01-04T07:37:48.186Z,14.78
2019-01-04T07:40:15.009Z,12.50
2019-01-04T07:42:41.834Z,12.93
2019-01-04T07:45:09.025Z,16.05
2019-01-04T07:47:35.829Z,16.50
2019-01-04T07:50:03.598Z,14.50
2019-01-04T07:52:30.585Z,15.23
2019-01-04T07:54:57.475Z,13.22
2019-01-04T07:57:24.326Z,14.65
2019-01-04T07:59:51.116Z,15.13
2019-01-04T08:02:33.837Z,13.40
2019-01-04T08:05:00.617Z,15.30
2019-01-04T08:07:27.686Z,13.32
2019-01-04T08:09:54.685Z,12.40
2019-01-04T08:12:21.528Z,14.28
2019-01-04T08:14:48.814Z,11.28
2019-01-04T08:17:15.696Z,12.68
2019-01-04T08:19:42.546Z,14.80
2019-01-04T08:22:09.328Z,13.05
2019-01-04T08:24:36.159Z,14.15
2019-01-04T08:27:02.956Z,22.40
2019-01-04T08:29:29.826Z,17.45
2019-01-04T08:31:56.638Z,15.28
2019-01-04T08:34:23.490Z,17.07
2019-01-04T08:36:50.281Z,16.12
2019-01-04T08:39:18.120Z,16.40
2019-01-04T08:41:44.922Z,13.22
2019-01-04T08:44:11.706Z,15.18
2019-01-04T08:46:39.133Z,12.98
2019-01-04T08:49:05.953Z,13.78
2019-01-04T08:51:32.748Z,15.93
2019-01-04T08:53:59.981Z,16.12
2019-01-04T08:56:29.266Z,15.05
2019-01-04T08:58:56.080Z,14.65
2019-01-04T09:01:22.860Z,15.85
2019-01-04T09:03:49.685Z,16.77
2019-01-04T09:06:22.244Z,16.60
2019-01-04T09:08:49.066Z,18.10
2019-01-04T09:11:15.853Z,14.10
2019-01-04T09:13:42.698Z,16.40
2019-01-04T09:16:09.461Z,15.75
2019-01-04T09:18:36.317Z,13.25
2019-01-04T09:21:03.098Z,15.50
2019-01-04T09:23:29.918Z,15.45
2019-01-04T09:25:56.698Z,20.30
2019-01-04T09:28:23.522Z,24.80
2019-01-04T09:30:50.445Z,27.25
2019-01-04T09:33:17.237Z,24.47
2019-01-04T09:35:44.128Z,17.67
2019-01-04T09:38:10.949Z,22.52
2019-01-04T09:40:37.739Z,16.40
2019-01-04T09:43:04.554Z,17.50
2019-01-04T09:45:31.369Z,17.45
2019-01-04T09:47:58.188Z,17.05
2019-01-04T09:50:25.005Z,20.15
2019-01-04T09:52:51.820Z,28.45
2019-01-04T09:55:18.602Z,12.50
2019-01-04T09:57:45.421Z,16.10
2019-01-04T10:00:12.408Z,15.98
2019-01-04T10:02:39.289Z,17.52
2019-01-04T10:05:06.965Z,15.23
2019-01-04T10:07:33.779Z,20.32
2019-01-04T10:10:00.582Z,17.75
2019-01-04T10:12:27.362Z,16.42
2019-01-04T10:14:54.181Z,14.63
2019-01-04T10:17:21.011Z,23.75
2019-01-04T10:19:47.986Z,18.82
2019-01-04T10:22:14.929Z,17.57
2019-01-04T10:24:41.996Z,19.07
2019-01-04T10:27:12.011Z,16.67
2019-01-04T10:29:38.921Z,19.35
2019-01-04T10:32:07.169Z,16.05
2019-01-04T10:34:34.036Z,18.42
2019-01-04T10:37:01.051Z,19.98
2019-01-04T10:39:27.992Z,23.50
2019-01-04T10:41:54.871Z,18.45
2019-01-04T10:44:21.698Z,19.35
2019-01-04T10:46:52.597Z,14.25
2019-01-04T10:49:19.523Z,15.10
2019-01-04T10:51:47.373Z,13.55
2019-01-04T10:54:14.743Z,16.02
2019-01-04T10:56:41.718Z,15.93
2019-01-04T10:59:09.075Z,13.83
2019-01-04T11:01:35.960Z,13.15
2019-01-04T11:04:02.887Z,15.35
2019-01-04T11:06:29.854Z,12.43
2019-01-04T11:08:56.632Z,15.95
2019-01-04T11:11:23.549Z,12.53
2019-01-04T11:13:50.352Z,13.85
2019-01-04T11:16:17.168Z,10.30
2019-01-04T11:18:44.103Z,9.08
2019-01-04T11:21:10.916Z,12.50
2019-01-04T11:24:00.797Z,10.32
2019-01-04T11:26:37.082Z,9.28
2019-01-04T11:29:40.721Z,13.30
2019-01-04T11:32:14.689Z,10.90
2019-01-04T11:35:07.476Z,13.13
2019-01-04T11:37:37.916Z,10.38
2019-01-04T11:40:14.033Z,11.83
2019-01-04T11:42:50.234Z,12.47
2019-01-04T11:45:23.714Z,11.20
2019-01-04T11:47:59.561Z,10.08
2019-01-04T11:50:42.001Z,9.85
2019-01-04T11:53:12.316Z,10.88
2019-01-04T11:55:39.146Z,12.78
2019-01-04T11:58:05.935Z,10.75
2019-01-04T12:00:32.757Z,12.43
2019-01-04T12:02:59.694Z,10.38
2019-01-04T12:05:26.468Z,7.55
2019-01-04T12:07:53.285Z,10.70
2019-01-04T12:10:20.104Z,7.70
2019-01-04T12:12:46.896Z,5.83
2019-01-04T12:15:13.733Z,6.17
2019-01-04T12:17:40.559Z,6.70
2019-01-04T12:20:07.431Z,16.02
2019-01-04T12:22:34.261Z,6.20
2019-01-04T12:25:01.193Z,6.58
2019-01-04T12:27:27.970Z,6.10
2019-01-04T12:29:54.793Z,6.50
2019-01-04T12:32:21.568Z,5.75
2019-01-04T12:34:48.485Z,5.42
2019-01-04T12:37:15.272Z,5.05
2019-01-04T12:39:42.097Z,6.30
2019-01-04T12:42:08.925Z,6.12
2019-01-04T12:44:35.706Z,6.58
2019-01-04T12:47:02.525Z,8.45
2019-01-04T12:49:29.457Z,7.55
2019-01-04T12:51:56.281Z,10.18
2019-01-04T12:54:23.067Z,7.62
2019-01-04T12:56:49.885Z,9.30
2019-01-04T12:59:16.664Z,9.60
2019-01-04T13:01:43.481Z,8.03
2019-01-04T13:04:10.306Z,13.53
2019-01-04T13:06:37.094Z,9.60
2019-01-04T13:09:05.012Z,7.35
2019-01-04T13:11:31.797Z,8.93
2019-01-04T13:13:58.825Z,9.55
2019-01-04T13:16:25.608Z,9.60
2019-01-04T13:18:52.437Z,9.03
2019-01-04T13:21:19.256Z,8.40
2019-01-04T13:23:46.081Z,5.87
2019-01-04T13:26:12.917Z,6.40
2019-01-04T13:28:39.697Z,6.90
2019-01-04T13:31:06.516Z,7.90
2019-01-04T13:33:33.302Z,6.45
2019-01-04T13:36:00.125Z,7.00
2019-01-04T13:38:26.913Z,7.50
2019-01-04T13:40:53.739Z,6.65
2019-01-04T13:43:20.522Z,7.17
2019-01-04T13:45:47.348Z,12.58
2019-01-04T13:48:14.133Z,8.68
2019-01-04T13:50:40.957Z,10.75
2019-01-04T13:53:07.757Z,11.10
2019-01-04T13:55:34.582Z,12.10
2019-01-04T13:58:01.406Z,13.65
2019-01-04T14:00:28.193Z,12.18
2019-01-04T14:02:55.021Z,16.77
2019-01-04T14:05:22.689Z,12.58
2019-01-04T14:07:49.745Z,15.13
2019-01-04T14:10:16.575Z,10.95
2019-01-04T14:12:43.361Z,9.60
2019-01-04T14:15:10.191Z,12.37
2019-01-04T14:17:37.038Z,14.33
2019-01-04T14:20:05.649Z,11.40
2019-01-04T14:22:32.431Z,12.20
2019-01-04T14:24:59.280Z,11.22
2019-01-04T14:27:26.058Z,12.45
2019-01-04T14:29:52.894Z,13.03
2019-01-04T14:32:19.677Z,9.48
2019-01-04T14:34:46.504Z,14.60
2019-01-04T14:37:13.629Z,10.68
2019-01-04T14:39:40.413Z,13.00
2019-01-04T14:42:07.236Z,15.45
2019-01-04T14:44:34.016Z,14.03
2019-01-04T14:47:00.844Z,12.13
2019-01-04T14:49:27.661Z,16.12
2019-01-04T14:51:54.449Z,11.05
2019-01-04T14:54:21.273Z,10.98
2019-01-04T14:56:48.057Z,10.75
2019-01-04T14:59:14.890Z,10.72
2019-01-04T15:01:41.709Z,11.45
2019-01-04T15:04:08.500Z,12.60
2019-01-04T15:06:35.327Z,12.03
2019-01-04T15:09:02.450Z,10.93
2019-01-04T15:11:29.229Z,11.70
2019-01-04T15:13:56.052Z,11.60
2019-01-04T15:16:22.875Z,14.43
2019-01-04T15:18:49.677Z,11.75
2019-01-04T15:21:16.546Z,13.13
2019-01-04T15:23:43.368Z,10.13
2019-01-04T15:26:10.149Z,11.03
2019-01-04T15:28:36.973Z,11.12
2019-01-04T15:31:03.815Z,8.68
2019-01-04T15:33:30.596Z,10.88
2019-01-04T15:35:57.424Z,8.78
2019-01-04T15:38:24.241Z,13.93
2019-01-04T15:40:51.046Z,7.97
2019-01-04T15:43:17.866Z,10.98
2019-01-04T15:45:44.815Z,11.70
2019-01-04T15:48:11.597Z,8.13
2019-01-04T15:50:38.475Z,6.95
2019-01-04T15:53:05.394Z,9.23
2019-01-04T15:55:32.223Z,8.78
2019-01-04T15:57:59.045Z,9.73
2019-01-04T16:00:25.838Z,8.55
2019-01-04T16:02:52.653Z,8.88
2019-01-04T16:05:19.450Z,8.25
2019-01-04T16:07:46.458Z,7.53
2019-01-04T16:10:13.363Z,9.38
2019-01-04T16:12:40.373Z,8.75
2019-01-04T16:15:08.790Z,14.28
2019-01-04T16:17:35.814Z,7.08
2019-01-04T16:20:05.652Z,7.03
2019-01-04T16:22:32.560Z,8.70
2019-01-04T16:24:59.495Z,5.80
2019-01-04T16:27:26.359Z,10.28
2019-01-04T16:29:53.253Z,6.78
2019-01-04T16:32:20.179Z,8.18
2019-01-04T16:34:47.159Z,7.95
2019-01-04T16:37:14.074Z,5.50
2019-01-04T16:39:41.018Z,6.87
2019-01-04T16:42:07.756Z,6.83
2019-01-04T16:44:34.598Z,8.23
2019-01-04T16:47:01.429Z,5.47
2019-01-04T16:49:30.026Z,6.90
2019-01-04T16:51:56.853Z,7.03
2019-01-04T16:54:23.650Z,5.83
2019-01-04T16:56:50.425Z,6.17
2019-01-04T16:59:17.245Z,5.05
2019-01-04T17:01:44.030Z,5.15
2019-01-04T17:04:11.749Z,5.15
2019-01-04T17:06:38.530Z,14.30
2019-01-04T17:09:05.657Z,4.87
2019-01-04T17:11:32.444Z,5.40
2019-01-04T17:13:59.261Z,4.53
2019-01-04T17:16:26.091Z,4.62
2019-01-04T17:18:52.870Z,5.17
2019-01-04T17:21:19.684Z,3.80
2019-01-04T17:23:46.509Z,4.70
2019-01-04T17:26:13.328Z,4.30
2019-01-04T17:28:40.141Z,5.37
2019-01-04T17:31:06.957Z,5.03
2019-01-04T17:33:33.753Z,3.92
2019-01-04T17:36:00.649Z,4.47
2019-01-04T17:38:27.434Z,4.10
2019-01-04T17:40:54.255Z,4.65
2019-01-04T17:43:21.049Z,4.40
2019-01-04T17:45:47.880Z,3.80
2019-01-04T17:48:14.669Z,3.55
2019-01-04T17:50:41.506Z,3.52
2019-01-04T17:53:08.297Z,4.30
2019-01-04T17:55:35.116Z,12.80
2019-01-04T17:58:01.899Z,4.78
2019-01-04T18:00:28.712Z,6.17
2019-01-04T18:03:00.758Z,4.25
2019-01-04T18:05:24.157Z,4.12
2019-01-04T18:07:50.945Z,3.00
2019-01-04T18:10:17.870Z,4.05
2019-01-04T18:12:44.653Z,3.33
2019-01-04T18:15:11.445Z,3.52
2019-01-04T18:17:38.268Z,3.95
2019-01-04T18:20:06.957Z,4.72
2019-01-04T18:22:33.970Z,4.20
2019-01-04T18:25:00.843Z,3.65
2019-01-04T18:27:27.602Z,3.27
2019-01-04T18:29:54.508Z,4.97
2019-01-04T18:32:21.314Z,4.08
2019-01-04T18:34:48.135Z,4.08
2019-01-04T18:37:14.961Z,3.95
2019-01-04T18:39:41.745Z,3.60
2019-01-04T18:42:08.573Z,3.87
2019-01-04T18:44:35.364Z,3.65
2019-01-04T18:47:02.193Z,4.40
2019-01-04T18:49:28.976Z,4.58
2019-01-04T18:51:55.819Z,3.72
2019-01-04T18:54:22.641Z,4.42
2019-01-04T18:56:49.425Z,3.85
2019-01-04T18:59:16.241Z,4.80
2019-01-04T19:01:43.026Z,4.33
2019-01-04T19:04:09.862Z,6.50
2019-01-04T19:06:37.053Z,5.70
2019-01-04T19:09:05.657Z,5.83
2019-01-04T19:11:32.444Z,5.80
2019-01-04T19:13:59.269Z,6.90
2019-01-04T19:16:26.093Z,6.17
2019-01-04T19:18:52.873Z,4.85
2019-01-04T19:21:19.692Z,5.53
2019-01-04T19:23:46.518Z,5.03
2019-01-04T19:26:13.335Z,4.70
2019-01-04T19:28:40.124Z,6.90
2019-01-04T19:31:06.946Z,4.33
2019-01-04T19:33:33.929Z,5.28
2019-01-04T19:36:00.808Z,5.08
2019-01-04T19:38:27.663Z,6.15
2019-01-04T19:40:54.448Z,6.85
2019-01-04T19:43:21.549Z,5.53
2019-01-04T19:45:48.334Z,9.00
2019-01-04T19:48:15.152Z,6.00
2019-01-04T19:50:42.068Z,5.60
2019-01-04T19:53:10.655Z,11.15
2019-01-04T19:55:37.464Z,7.50
2019-01-04T19:58:04.245Z,8.60
2019-01-04T20:00:31.074Z,7.03
2019-01-04T20:02:57.861Z,8.63
2019-01-04T20:05:39.382Z,6.90
2019-01-04T20:08:40.420Z,6.80
2019-01-04T20:11:33.706Z,6.28
2019-01-04T20:14:54.346Z,5.20
2019-01-04T20:17:28.696Z,6.87
2019-01-04T20:20:06.127Z,6.65
2019-01-04T20:22:34.747Z,5.85
2019-01-04T20:25:06.492Z,9.00
2019-01-04T20:27:37.961Z,5.95
2019-01-04T20:30:14.101Z,5.53
2019-01-04T20:32:42.791Z,5.50
2019-01-04T20:35:25.289Z,8.00
2019-01-04T20:37:54.044Z,6.37
2019-01-04T20:40:31.613Z,6.00
2019-01-04T20:43:03.134Z,6.17
2019-01-04T20:45:37.639Z,6.30
2019-01-04T20:48:21.141Z,7.20
2019-01-04T20:50:55.906Z,6.03
2019-01-04T20:53:40.856Z,6.33
2019-01-04T20:56:12.315Z,7.05
2019-01-04T20:58:52.779Z,6.55
2019-01-04T21:01:21.403Z,5.83
2019-01-04T21:04:06.512Z,7.30
2019-01-04T21:06:40.926Z,7.65
2019-01-04T21:09:27.840Z,6.20
2019-01-04T21:11:59.019Z,5.95
2019-01-04T21:14:30.397Z,9.70
2019-01-04T21:17:17.009Z,6.92
2019-01-04T21:20:02.037Z,6.20
2019-01-04T21:22:33.420Z,8.43
2019-01-04T21:25:13.952Z,6.80
2019-01-04T21:27:42.578Z,7.47
2019-01-04T21:30:19.794Z,5.90
2019-01-04T21:33:05.068Z,31.37
2019-01-04T21:35:33.690Z,10.00
2019-01-04T21:38:02.289Z,7.53
2019-01-04T21:40:33.676Z,6.53
2019-01-04T21:43:18.649Z,10.75
2019-01-04T21:46:05.180Z,7.10
2019-01-04T21:48:36.537Z,6.97
2019-01-04T21:51:07.924Z,7.03
2019-01-04T21:53:36.502Z,8.10
2019-01-04T21:56:21.517Z,8.80
2019-01-04T21:58:50.137Z,7.30
2019-01-04T22:01:27.653Z,7.90
2019-01-04T22:04:12.628Z,11.55
2019-01-04T22:06:44.013Z,8.65
2019-01-04T22:09:15.339Z,6.83
2019-01-04T22:11:49.690Z,7.90
2019-01-04T22:14:24.086Z,8.20
2019-01-04T22:17:01.613Z,6.80
2019-01-04T22:19:46.657Z,10.48
2019-01-04T22:22:24.260Z,10.75
2019-01-04T22:25:09.360Z,7.50
2019-01-04T22:27:46.970Z,8.45
2019-01-04T22:30:27.544Z,8.20
2019-01-04T22:33:12.648Z,10.95
2019-01-04T22:35:59.205Z,10.72
2019-01-04T22:38:30.841Z,8.53
2019-01-04T22:41:08.205Z,12.40
2019-01-04T22:43:53.538Z,11.40
2019-01-04T22:46:22.347Z,10.18
2019-01-04T22:48:50.998Z,17.37
2019-01-04T22:51:36.032Z,12.23
2019-01-04T22:54:10.454Z,8.58
2019-01-04T22:56:39.145Z,10.75
2019-01-04T22:59:07.848Z,11.78
2019-01-04T23:01:51.460Z,10.43
2019-01-04T23:04:22.728Z,11.73
2019-01-04T23:07:00.108Z,11.50
2019-01-04T23:09:35.753Z,10.35
2019-01-04T23:12:20.705Z,11.43
2019-01-04T23:15:05.825Z,9.23
2019-01-04T23:17:43.305Z,8.63
2019-01-04T23:20:28.300Z,9.88
2019-01-04T23:22:59.728Z,12.45
2019-01-04T23:25:31.388Z,10.13
2019-01-04T23:28:14.909Z,11.83
2019-01-04T23:30:46.627Z,11.10
2019-01-04T23:33:33.217Z,11.00
2019-01-04T23:36:07.617Z,10.53
2019-01-04T23:38:48.021Z,10.15
2019-01-04T23:41:25.513Z,10.55
2019-01-04T23:44:09.130Z,11.12
2019-01-04T23:46:37.746Z,11.18
2019-01-04T23:49:24.281Z,10.43
2019-01-04T23:52:09.241Z,8.05
2019-01-04T23:54:37.869Z,11.28
2019-01-04T23:57:09.256Z,10.08
2019-01-04T23:59:49.745Z,10.08
